PASH Airport Information

Runway Information
Runway 05 Length 5000 ft width 70 ft
Elevation 11 ft Threshold ft Heading 63
Runway 23 Length 5000 ft Width 70 ft
Elevation 12 ft Threshold ft Heading 243
Airport Frequencies
Type AWOS Name AWOS 3 Frequency 121.1 MHZ
Type CNTR Name ANCHORAGE Frequency 119.2 MHZ
Type CTAF Name CTAF Frequency 123 MHZ
Type FSS Name NOME RDO Frequency 122.4 MHZ
Type MISC Name TWEB Frequency 36.5 MHZ
Airport Navaids
Type NDB Name Shishmaref Frequency 365 KHZ
Airport Weather Information & NOTAM
ADDS - METARS form results

(1041 UTC 27 January 2023)
Data provider http://aviationweather.gov/metar/data/
 
METAR text: PASH 270956Z AUTO 08024G28KT 2SM -SN BR OVC041 M21/M23 A3044 RMK AO2 PK WND 08028/0953 SLP309 P0000 T12111233 FZRANO
Conditions at: PASH (SHISHMAREF , AK, US) observed 0956 UTC 27 January 2023
Temperature: -21.1°C (-6°F)
Dewpoint: -23.3°C (-10°F) [RH = 82%]
Pressure (altimeter): 30.44 inches Hg (1030.9 mb)
[Sea-level pressure: 1030.9 mb]
Winds: from the E (80 degrees) at 28 MPH (24 knots; 12.3 m/s)
gusting to 32 MPH (28 knots; 14.4 m/s)
Visibility: 2.00 miles (3.22 km)
Ceiling: 4100 feet AGL
Clouds: overcast cloud deck at 4100 feet AGL
Weather: -SN BR  (light snow, mist)